Weather at Berga Heliport

Public forecast

Using degrees Celsius for public forecast. Weather courtesy of forecast.io.

Closest aviation weather report (METAR) to Berga Heliport

Closest report is Pirineus - la Seu d'Urgel Airport, 24.2 nm (44.8 km) NW. Retrieved 2020/10/23 10:30 UTC (0 seconds ago):

LESU 231030Z VRB02KT 9999 SCT003 BKN005 15/12 Q1019

Closest aviation forecast (TAF) to Berga Heliport

Closest forecast is Pirineus - la Seu d'Urgel Airport, 24.2 nm (44.8 km) NW. Retrieved 2020/10/23 09:00 UTC (1 hour ago):

TAF LESU 230800Z 2309/2409 VRB03KT 9999 FEW020 TX20/2313Z TN03/2405Z PROB40 TEMPO 2309/2311 0100 FG VV002 PROB40 TEMPO 2309/2314 4000 SHRA FEW040CB PROB30 2311/2314 4000 TSRA FEW040CB TEMPO 2311/2318 20010KT